Startpagina
METAR-TAF:

METAR-TAF

Vliegvelden :

Weno, Micronesië

breedte: 07-28N, lengte: 151-51E, hoogte: 3 m

Actueel weer

Dit bericht is 1 uur en het 6 minuten geleden gemaakt, om 20:50 UTC
Wind 4 kt uit variabele richting
Temperatuur 28°C
Vochtigheid 84%
Druk 1009 hPa
Zicht: 22.5 km
Weinig wolken op 1400 ft, Cumulonimbus.
Gebroken wolken op 12000 ft
Geheel bewolkt op 28000 ft
lichte regen

METAR: PTKK 162050Z VRB04KT 14SM -RA FEW014CB BKN120 OVC280 28/25 A2979 RMK CB E-S-SW SLP091 60000 8/328 T02820245 52019

Tijdstip: 07:56 (21:56 UTC)

Verwachting

Dit bericht is 4 uur en het 25 minuten geleden gemaakt, om 17:31 UTC
Verwachting geldig van 16 om 18 UTC tot 17 om 18 UTC
Wind 8 kt uit het westzuidwesten
Zicht: 10 km
Verspreide wolken op 1400 ft
Gebroken wolken op 12000 ft
buien in de omgeving

TAF: PTKK 161731Z 1618/1718 24008KT P6SM VCSH SCT014 BKN120

Waarnemingen en weersverwachtingen van meer dan 4000 vliegvelden (METAR en TAF).

De beschikbare stations zijn de gele en rode punten op de kaart.

Ga met uw muis naar het station om de naam te zien.

Klik dan om waarnemingen en weersverwachtingen te zien.

kaart wijzigen: klik op de groene knoppen met een zwart kruis om in te zoomen, op de groene knop met een streepje om uit te zoomen of op de groene pijlen voor aangrenzende kaarten.


METAR-TAF: